createdAt,value
2019-01-11T00:01:51.111Z,61.67
2019-01-11T00:04:56.784Z,57.70
2019-01-11T00:08:02.478Z,56.90
2019-01-11T00:11:08.186Z,55.53
2019-01-11T00:14:13.957Z,58.27
2019-01-11T00:17:19.675Z,58.63
2019-01-11T00:20:25.271Z,52.03
2019-01-11T00:23:30.870Z,50.03
2019-01-11T00:26:36.497Z,46.53
2019-01-11T00:29:42.131Z,50.63
2019-01-11T00:32:47.980Z,42.10
2019-01-11T00:35:53.607Z,43.93
2019-01-11T00:38:59.646Z,41.73
2019-01-11T00:42:06.985Z,37.57
2019-01-11T00:45:12.843Z,36.67
2019-01-11T00:48:18.564Z,38.20
2019-01-11T00:51:24.324Z,33.43
2019-01-11T00:54:29.996Z,33.53
2019-01-11T00:57:35.595Z,31.13
2019-01-11T01:00:41.214Z,29.23
2019-01-11T01:03:46.857Z,28.53
2019-01-11T01:06:53.577Z,27.07
2019-01-11T01:09:59.180Z,27.70
2019-01-11T01:13:05.606Z,27.97
2019-01-11T01:16:11.390Z,26.13
2019-01-11T01:19:20.134Z,26.17
2019-01-11T01:22:24.337Z,27.23
2019-01-11T01:25:30.023Z,21.47
2019-01-11T01:28:35.667Z,26.20
2019-01-11T01:31:43.049Z,25.93
2019-01-11T01:34:48.843Z,23.10
2019-01-11T01:37:54.562Z,21.77
2019-01-11T01:41:00.152Z,22.20
2019-01-11T01:44:05.931Z,21.80
2019-01-11T01:47:11.560Z,23.97
2019-01-11T01:50:17.292Z,21.30
2019-01-11T01:53:22.952Z,19.87
2019-01-11T01:56:28.583Z,23.40
2019-01-11T01:59:34.355Z,19.87
2019-01-11T02:02:40.224Z,23.63
2019-01-11T02:05:45.878Z,19.60
2019-01-11T02:08:51.506Z,19.87
2019-01-11T02:11:57.186Z,19.53
2019-01-11T02:15:02.973Z,21.10
2019-01-11T02:18:08.561Z,22.00
2019-01-11T02:21:14.151Z,23.90
2019-01-11T02:24:19.899Z,19.67
2019-01-11T02:27:25.536Z,20.30
2019-01-11T02:30:31.226Z,20.03
2019-01-11T02:33:36.857Z,23.03
2019-01-11T02:36:42.522Z,17.53
2019-01-11T02:39:48.184Z,20.23
2019-01-11T02:42:53.815Z,20.67
2019-01-11T02:45:59.408Z,22.63
2019-01-11T02:49:05.208Z,25.93
2019-01-11T02:52:10.925Z,19.90
2019-01-11T02:55:16.645Z,19.63
2019-01-11T02:58:22.279Z,20.33
2019-01-11T03:01:28.135Z,19.93
2019-01-11T03:04:33.886Z,20.07
2019-01-11T03:07:39.502Z,19.60
2019-01-11T03:10:45.234Z,20.57
2019-01-11T03:13:50.850Z,17.73
2019-01-11T03:16:56.663Z,19.80
2019-01-11T03:20:02.403Z,19.93
2019-01-11T03:23:08.250Z,18.13
2019-01-11T03:26:13.884Z,20.27
2019-01-11T03:29:19.497Z,22.73
2019-01-11T03:32:25.110Z,21.43
2019-01-11T03:35:30.732Z,19.00
2019-01-11T03:38:36.305Z,20.97
2019-01-11T03:42:09.138Z,21.53
2019-01-11T03:45:16.947Z,21.17
2019-01-11T03:48:22.571Z,20.47
2019-01-11T03:51:28.335Z,20.70
2019-01-11T03:54:33.954Z,48.27
2019-01-11T03:57:39.624Z,27.03
2019-01-11T04:00:45.280Z,24.27
2019-01-11T04:03:50.947Z,24.43
2019-01-11T04:06:56.523Z,21.33
2019-01-11T04:10:02.271Z,19.90
2019-01-11T04:13:07.964Z,21.30
2019-01-11T04:16:13.586Z,19.37
2019-01-11T04:19:19.245Z,33.47
2019-01-11T04:22:29.745Z,23.13
2019-01-11T04:25:46.939Z,24.67
2019-01-11T04:28:52.645Z,20.03
2019-01-11T04:31:58.314Z,22.40
2019-01-11T04:35:04.632Z,28.27
2019-01-11T04:38:10.273Z,16.40
2019-01-11T04:41:15.848Z,15.57
2019-01-11T04:44:21.440Z,14.57
2019-01-11T04:47:27.232Z,16.00
2019-01-11T04:50:32.874Z,17.50
2019-01-11T04:53:38.577Z,15.83
2019-01-11T04:56:44.239Z,15.50
2019-01-11T04:59:49.835Z,12.50
2019-01-11T05:02:55.420Z,12.77
2019-01-11T05:06:01.160Z,14.33
2019-01-11T05:09:08.077Z,12.53
2019-01-11T05:12:13.787Z,18.83
2019-01-11T05:15:19.529Z,17.97
2019-01-11T05:18:25.195Z,14.97
2019-01-11T05:21:30.846Z,15.17
2019-01-11T05:24:36.421Z,14.07
2019-01-11T05:27:42.145Z,15.93
2019-01-11T05:30:47.767Z,13.70
2019-01-11T05:33:53.495Z,17.67
2019-01-11T05:36:59.269Z,20.47
2019-01-11T05:40:06.276Z,14.27
2019-01-11T05:43:11.956Z,14.63
2019-01-11T05:46:17.636Z,21.57
2019-01-11T05:49:23.272Z,15.20
2019-01-11T05:52:28.944Z,16.53
2019-01-11T05:55:48.499Z,15.50
2019-01-11T05:59:12.981Z,17.37
2019-01-11T06:02:18.591Z,15.63
2019-01-11T06:05:24.295Z,16.07
2019-01-11T06:08:30.897Z,17.23
2019-01-11T06:11:36.487Z,10.50
2019-01-11T06:14:42.125Z,16.83
2019-01-11T06:17:47.749Z,13.00
2019-01-11T06:20:53.399Z,18.60
2019-01-11T06:23:59.064Z,15.23
2019-01-11T06:27:04.892Z,15.80
2019-01-11T06:30:13.064Z,16.27
2019-01-11T06:33:18.705Z,18.10
2019-01-11T06:36:24.317Z,16.87
2019-01-11T06:39:30.054Z,17.63
2019-01-11T06:42:36.722Z,16.93
2019-01-11T06:45:42.353Z,16.07
2019-01-11T06:48:48.007Z,16.97
2019-01-11T06:51:54.451Z,19.50
2019-01-11T06:55:00.178Z,21.87
2019-01-11T06:58:05.886Z,17.50
2019-01-11T07:01:11.549Z,19.40
2019-01-11T07:04:17.177Z,20.47
2019-01-11T07:07:22.800Z,19.10
2019-01-11T07:10:28.561Z,17.57
2019-01-11T07:13:34.236Z,19.30
2019-01-11T07:16:39.904Z,19.93
2019-01-11T07:19:45.572Z,19.33
2019-01-11T07:22:51.184Z,21.90
2019-01-11T07:25:56.923Z,20.80
2019-01-11T07:29:02.582Z,13.03
2019-01-11T07:32:08.201Z,13.37
2019-01-11T07:35:13.995Z,12.57
2019-01-11T07:38:19.787Z,19.57
2019-01-11T07:41:25.403Z,15.70
2019-01-11T07:44:31.145Z,16.77
2019-01-11T07:47:36.745Z,19.43
2019-01-11T07:50:42.367Z,13.23
2019-01-11T07:53:48.077Z,18.83
2019-01-11T07:56:54.468Z,15.87
2019-01-11T08:00:00.094Z,18.70
2019-01-11T08:03:06.050Z,19.03
2019-01-11T08:06:11.859Z,21.00
2019-01-11T08:09:17.574Z,27.37
2019-01-11T08:12:23.299Z,25.83
2019-01-11T08:15:29.117Z,22.50
2019-01-11T08:18:34.717Z,25.40
2019-01-11T08:21:40.413Z,28.53
2019-01-11T08:24:53.780Z,29.67
2019-01-11T08:28:06.587Z,30.33
2019-01-11T08:31:12.214Z,22.13
2019-01-11T08:34:17.957Z,25.20
2019-01-11T08:37:24.593Z,22.10
2019-01-11T08:40:30.309Z,21.83
2019-01-11T08:43:37.117Z,29.23
2019-01-11T08:46:42.888Z,21.67
2019-01-11T08:49:48.595Z,21.17
2019-01-11T08:52:54.453Z,22.43
2019-01-11T08:56:00.117Z,22.20
2019-01-11T08:59:05.860Z,21.43
2019-01-11T09:02:11.485Z,24.90
2019-01-11T09:05:17.256Z,20.10
2019-01-11T09:08:23.028Z,21.37
2019-01-11T09:11:28.616Z,28.30
2019-01-11T09:14:51.914Z,22.30
2019-01-11T09:18:17.956Z,23.97
2019-01-11T09:21:23.877Z,25.63
2019-01-11T09:24:29.624Z,23.60
2019-01-11T09:27:35.353Z,19.43
2019-01-11T09:30:41.180Z,20.80
2019-01-11T09:33:46.906Z,15.50
2019-01-11T09:36:52.656Z,24.03
2019-01-11T09:39:58.500Z,19.73
2019-01-11T09:43:04.443Z,24.77
2019-01-11T09:46:10.744Z,32.77
2019-01-11T09:49:16.499Z,75.37
2019-01-11T09:52:22.274Z,134.03
2019-01-11T09:55:28.016Z,67.33
2019-01-11T09:58:33.747Z,36.77
2019-01-11T10:01:39.591Z,24.37
2019-01-11T10:04:45.421Z,22.93
2019-01-11T10:07:52.271Z,22.00
2019-01-11T10:10:58.021Z,25.37
2019-01-11T10:14:03.886Z,24.77
2019-01-11T10:17:09.743Z,23.80
2019-01-11T10:20:15.754Z,20.73
2019-01-11T10:23:21.551Z,18.87
2019-01-11T10:26:27.392Z,20.90
2019-01-11T10:29:33.205Z,17.17
2019-01-11T10:32:38.918Z,16.33
2019-01-11T10:35:44.570Z,13.67
2019-01-11T10:38:50.209Z,18.30
2019-01-11T10:41:55.890Z,13.30
2019-01-11T10:45:01.514Z,12.53
2019-01-11T10:48:07.219Z,15.13
2019-01-11T10:51:12.949Z,19.63
2019-01-11T10:54:30.009Z,14.87
2019-01-11T10:57:35.636Z,20.87
2019-01-11T11:00:41.318Z,20.40
2019-01-11T11:03:47.039Z,15.80
2019-01-11T11:06:52.675Z,17.03
2019-01-11T11:09:59.612Z,14.73
2019-01-11T11:13:05.301Z,15.33
2019-01-11T11:16:10.976Z,20.07
2019-01-11T11:19:16.686Z,15.43
2019-01-11T11:22:22.319Z,16.27
2019-01-11T11:25:27.996Z,13.47
2019-01-11T11:28:33.583Z,13.33
2019-01-11T11:31:39.211Z,14.07
2019-01-11T11:34:46.481Z,13.77
2019-01-11T11:37:52.084Z,16.43
2019-01-11T11:40:57.700Z,83.37
2019-01-11T11:44:03.333Z,13.57
2019-01-11T11:47:08.938Z,15.70
2019-01-11T11:50:14.989Z,29.77
2019-01-11T11:53:20.777Z,23.43
2019-01-11T11:56:26.464Z,31.33
2019-01-11T11:59:32.106Z,28.20
2019-01-11T12:02:37.796Z,50.27
2019-01-11T12:05:43.387Z,20.57
2019-01-11T12:08:49.083Z,103.80
2019-01-11T12:11:54.794Z,32.97
2019-01-11T12:15:00.440Z,30.83
2019-01-11T12:18:06.215Z,15.40
2019-01-11T12:21:12.040Z,21.00
2019-01-11T12:24:18.692Z,12.67
2019-01-11T12:27:24.345Z,11.20
2019-01-11T12:30:30.061Z,13.97
2019-01-11T12:33:35.682Z,10.13
2019-01-11T12:36:41.507Z,12.37
2019-01-11T12:39:47.161Z,10.33
2019-01-11T12:42:52.792Z,12.83
2019-01-11T12:45:58.422Z,13.00
2019-01-11T12:49:04.075Z,13.70
2019-01-11T12:52:09.755Z,15.07
2019-01-11T12:55:15.438Z,15.90
2019-01-11T12:58:21.130Z,12.43
2019-01-11T13:01:26.744Z,17.73
2019-01-11T13:04:32.372Z,17.37
2019-01-11T13:07:38.016Z,25.07
2019-01-11T13:10:43.625Z,14.17
2019-01-11T13:13:49.284Z,40.20
2019-01-11T13:16:55.161Z,15.57
2019-01-11T13:20:00.962Z,14.53
2019-01-11T13:23:06.861Z,12.77
2019-01-11T13:26:12.651Z,10.67
2019-01-11T13:29:18.283Z,12.57
2019-01-11T13:32:23.996Z,11.67
2019-01-11T13:35:29.606Z,17.07
2019-01-11T13:38:35.308Z,20.00
2019-01-11T13:41:41.122Z,39.33
2019-01-11T13:44:46.749Z,23.37
2019-01-11T13:47:52.647Z,17.70
2019-01-11T13:50:58.271Z,16.23
2019-01-11T13:54:04.436Z,17.17
2019-01-11T13:57:10.039Z,15.07
2019-01-11T14:00:15.843Z,19.67
2019-01-11T14:03:21.556Z,19.53
2019-01-11T14:06:27.207Z,26.60
2019-01-11T14:09:33.242Z,22.90
2019-01-11T14:12:38.867Z,34.93
2019-01-11T14:15:44.646Z,35.33
2019-01-11T14:18:50.330Z,28.37
2019-01-11T14:21:55.978Z,30.43
2019-01-11T14:25:01.666Z,25.23
2019-01-11T14:28:07.450Z,31.43
2019-01-11T14:31:13.185Z,24.33
2019-01-11T14:34:18.949Z,24.30
2019-01-11T14:37:24.614Z,65.70
2019-01-11T14:40:30.225Z,36.43
2019-01-11T14:43:35.809Z,31.53
2019-01-11T14:46:41.445Z,22.47
2019-01-11T14:49:47.111Z,21.80
2019-01-11T14:52:52.908Z,24.07
2019-01-11T14:55:58.540Z,20.83
2019-01-11T14:59:04.202Z,20.37
2019-01-11T15:02:09.857Z,15.47
2019-01-11T15:05:16.302Z,19.33
2019-01-11T15:08:21.949Z,20.03
2019-01-11T15:11:27.587Z,21.13
2019-01-11T15:14:33.229Z,18.13
2019-01-11T15:17:38.929Z,19.40
2019-01-11T15:20:44.516Z,18.57
2019-01-11T15:23:50.136Z,19.90
2019-01-11T15:26:55.726Z,21.77
2019-01-11T15:30:01.373Z,25.13
2019-01-11T15:33:07.074Z,25.83
2019-01-11T15:36:12.735Z,24.80
2019-01-11T15:39:18.385Z,21.70
2019-01-11T15:42:24.023Z,20.67
2019-01-11T15:45:29.658Z,20.17
2019-01-11T15:48:45.055Z,26.23
2019-01-11T15:51:50.675Z,20.30
2019-01-11T15:54:56.333Z,21.80
2019-01-11T15:58:01.957Z,22.20
2019-01-11T16:01:07.743Z,19.17
2019-01-11T16:04:13.392Z,23.37
2019-01-11T16:07:19.047Z,24.27
2019-01-11T16:10:24.731Z,20.00
2019-01-11T16:13:56.434Z,22.37
2019-01-11T16:17:06.596Z,29.27
2019-01-11T16:20:12.839Z,23.77
2019-01-11T16:23:18.598Z,17.73
2019-01-11T16:26:24.223Z,22.77
2019-01-11T16:29:29.813Z,79.07
2019-01-11T16:32:35.533Z,30.50
2019-01-11T16:35:41.485Z,30.77
2019-01-11T16:38:47.097Z,29.23
2019-01-11T16:41:52.697Z,28.90
2019-01-11T16:44:58.321Z,22.87
2019-01-11T16:48:04.025Z,23.03
2019-01-11T16:51:09.639Z,42.67
2019-01-11T16:54:15.425Z,54.27
2019-01-11T16:57:21.059Z,44.40
2019-01-11T17:00:26.840Z,57.50
2019-01-11T17:03:32.565Z,46.60
2019-01-11T17:06:38.330Z,50.10
2019-01-11T17:09:43.968Z,41.13
2019-01-11T17:12:49.584Z,27.23
2019-01-11T17:15:55.177Z,34.73
2019-01-11T17:19:00.865Z,33.60
2019-01-11T17:22:06.777Z,31.30
2019-01-11T17:25:12.546Z,29.40
2019-01-11T17:28:18.170Z,30.30
2019-01-11T17:31:23.805Z,27.03
2019-01-11T17:34:29.413Z,25.57
2019-01-11T17:37:35.037Z,48.33
2019-01-11T17:40:40.682Z,24.23
2019-01-11T17:43:46.416Z,35.77
2019-01-11T17:46:52.073Z,25.63
2019-01-11T17:50:01.157Z,33.03
2019-01-11T17:53:05.353Z,38.80
2019-01-11T17:56:11.153Z,35.03
2019-01-11T17:59:16.794Z,25.63
2019-01-11T18:02:22.448Z,32.97
2019-01-11T18:05:28.133Z,23.13
2019-01-11T18:08:33.783Z,26.67
2019-01-11T18:11:39.358Z,29.20
2019-01-11T18:14:46.058Z,25.13
2019-01-11T18:17:51.892Z,27.03
2019-01-11T18:20:57.531Z,42.23
2019-01-11T18:24:03.116Z,31.33
2019-01-11T18:27:08.751Z,31.20
2019-01-11T18:30:15.942Z,34.97
2019-01-11T18:33:21.622Z,29.20
2019-01-11T18:36:27.348Z,42.63
2019-01-11T18:39:32.968Z,35.93
2019-01-11T18:42:38.590Z,48.60
2019-01-11T18:45:44.181Z,32.30
2019-01-11T18:48:49.820Z,28.70
2019-01-11T18:51:55.475Z,38.00
2019-01-11T18:55:01.272Z,30.23
2019-01-11T18:58:07.282Z,39.27
2019-01-11T19:01:12.927Z,32.90
2019-01-11T19:04:18.566Z,42.87
2019-01-11T19:07:25.204Z,35.40
2019-01-11T19:10:30.915Z,34.73
2019-01-11T19:13:36.646Z,45.93
2019-01-11T19:16:42.308Z,34.63
2019-01-11T19:19:48.024Z,30.67
2019-01-11T19:22:53.799Z,41.57
2019-01-11T19:25:59.398Z,34.53
2019-01-11T19:29:05.232Z,33.17
2019-01-11T19:32:10.852Z,36.03
2019-01-11T19:35:16.460Z,37.20
2019-01-11T19:38:22.428Z,36.37
2019-01-11T19:41:28.129Z,37.47
2019-01-11T19:44:33.803Z,34.17
2019-01-11T19:47:39.539Z,27.40
2019-01-11T19:50:46.300Z,35.03
2019-01-11T19:53:51.997Z,34.50
2019-01-11T19:56:57.566Z,36.43
2019-01-11T20:00:03.171Z,25.53
2019-01-11T20:03:09.018Z,37.90
2019-01-11T20:06:14.589Z,25.80
2019-01-11T20:09:20.323Z,28.20
2019-01-11T20:12:25.927Z,28.87
2019-01-11T20:15:32.050Z,34.30
2019-01-11T20:18:37.826Z,32.93
2019-01-11T20:21:43.545Z,32.40
2019-01-11T20:24:49.717Z,30.57
2019-01-11T20:27:55.343Z,39.73
2019-01-11T20:31:00.977Z,44.27
2019-01-11T20:34:08.702Z,27.63
2019-01-11T20:37:38.983Z,27.57
2019-01-11T20:40:44.718Z,23.97
2019-01-11T20:43:50.342Z,24.00
2019-01-11T20:46:55.988Z,26.73
2019-01-11T20:50:01.619Z,21.23
2019-01-11T20:53:07.222Z,26.40
2019-01-11T20:56:12.946Z,25.23
2019-01-11T20:59:18.572Z,19.63
2019-01-11T21:02:24.296Z,16.97
2019-01-11T21:05:30.416Z,22.97
2019-01-11T21:08:36.035Z,25.30
2019-01-11T21:11:41.697Z,22.90
2019-01-11T21:14:47.331Z,19.27
2019-01-11T21:17:53.156Z,20.70
2019-01-11T21:20:58.748Z,24.53
2019-01-11T21:24:04.677Z,22.70
2019-01-11T21:27:10.472Z,21.80
2019-01-11T21:30:24.361Z,21.17
2019-01-11T21:33:30.101Z,23.23
2019-01-11T21:36:35.769Z,21.23
2019-01-11T21:39:41.528Z,20.33
2019-01-11T21:42:47.657Z,24.13
2019-01-11T21:45:53.325Z,24.40
2019-01-11T21:48:59.255Z,53.57
2019-01-11T21:52:05.163Z,39.93
2019-01-11T21:55:11.939Z,30.77
2019-01-11T21:58:17.522Z,64.37
2019-01-11T22:01:23.166Z,80.93
2019-01-11T22:04:28.793Z,76.57
2019-01-11T22:07:35.523Z,193.73
2019-01-11T22:10:41.162Z,319.33
2019-01-11T22:13:46.983Z,155.50
2019-01-11T22:16:52.744Z,50.67
2019-01-11T22:19:58.529Z,66.03
2019-01-11T22:23:04.376Z,123.70
2019-01-11T22:26:10.236Z,124.37
2019-01-11T22:29:16.093Z,87.67
2019-01-11T22:32:21.824Z,49.63
2019-01-11T22:35:27.507Z,101.23
2019-01-11T22:38:33.188Z,40.97
2019-01-11T22:41:38.885Z,33.93
2019-01-11T22:44:44.466Z,39.87
2019-01-11T22:47:50.129Z,33.17
2019-01-11T22:50:55.777Z,39.83
2019-01-11T22:54:01.405Z,27.13
2019-01-11T22:57:07.172Z,23.23
2019-01-11T23:00:42.002Z,22.53
2019-01-11T23:03:51.070Z,21.47
2019-01-11T23:07:22.140Z,25.03
2019-01-11T23:11:07.398Z,22.70
2019-01-11T23:14:13.037Z,23.50
2019-01-11T23:17:34.466Z,22.17
2019-01-11T23:20:40.198Z,23.87
2019-01-11T23:23:45.938Z,28.27
2019-01-11T23:26:51.652Z,20.17
2019-01-11T23:29:57.374Z,27.00
2019-01-11T23:33:03.111Z,34.93
2019-01-11T23:36:08.895Z,25.90
2019-01-11T23:39:14.562Z,49.10
2019-01-11T23:42:20.192Z,24.90
2019-01-11T23:45:25.985Z,25.87
2019-01-11T23:48:31.613Z,23.30
2019-01-11T23:51:37.277Z,19.37
2019-01-11T23:54:42.903Z,27.87
2019-01-11T23:57:48.549Z,24.93
